Ashtabula, OH

11:37 AM EDT on August 27, 2014 (GMT -0400)
Ashtabula Harbor | Change Station
CLOSE
Current Station
Personal Weather Station
Location: Ashtabula, OH
Elevation: 633 ft
Nearby Weather Stations

Elev 633 ft 41.88 °N, 80.81 °W | Updated 58 seconds ago

Overcast
Overcast
76.4 °F
Feels Like 78 °F
N
5.0
Wind Variable Wind from North
Gusts 5.0 mph

Today
High -- | Low -- °F
--% Chance of Precip.
Yesterday
High -- | Low -- °F
Precip. -- in
6:43 AM 8:05 PM
Waxing Crescent, 4% visible
Pressure 30.10 in
Visibility 10.0 miles
Clouds Mostly Cloudy 1300 ft
Overcast 2900 ft
Heat Index 78 °F
Dew Point 65 °F
Humidity 68%
Rainfall 0.00 in
Snow Depth Not available.
UV 2 out of 12
Pollen 9.90 out of 12
Ozone Good
PM2.5 Moderate
Flu Activity Not available.
SPECI KHZY 271519Z AUTO 35005KT 10SM BKN013 OVC029 23/19 A3010 RMK AO2 T02280194

More Conditions Fewer Conditions

Pressure 30.10 in
Visibility 10.0 miles
Clouds Mostly Cloudy 1300 ft
Overcast 2900 ft
Heat Index 78 °F
Dew Point 65 °F
Humidity 68%
Rainfall 0.00 in
Snow Depth Not available.
UV 2 out of 12
Pollen 9.90 out of 12
Ozone Good
PM2.5 Moderate
Flu Activity Not available.
SPECI KHZY 271519Z AUTO 35005KT 10SM BKN013 OVC029 23/19 A3010 RMK AO2 T02280194

More Conditions Fewer Conditions

10-Day Weather Forecast

Almanac

Astronomy

Aug. 27, 2014 Rise Set
Actual Time 6:43 AM EDT 8:05 PM EDT
Civil Twilight 6:14 AM EDT 8:34 PM EDT
Nautical Twilight 5:39 AM EDT 9:08 PM EDT
Astronomical Twilight 5:02 AM EDT 9:45 PM EDT
Moon 8:40 AM EDT 8:53 PM EDT
Length of Visible Light 14h 19m
Length of Day
13h 21m
Tomorrow will be 2m 41s shorter.
Waxing Crescent, 4% of the Moon is Illuminated
Today
Waxing Crescent
Sep 2
First Quarter
Sep 8
Full
Sep 15
Last Quarter
Sep 24
New

Today's Extremes

State Highs State Lows

Community

WunderPhotos

Upload Photos

1,747,709 photos uploaded!

Nearby

Air Quality

  Air Quality AQ Index Pollutant
Yesterday Moderate
OZONE
Yesterday Good
PM10
Current Moderate
PM2.5
Current Good
OZONE
Wednesday Moderate
PM2.5
Wednesday Good
OZONE
Thursday Moderate
PM2.5
Thursday Good
OZONE
Friday Moderate
PM2.5
Friday Moderate
OZONE
Saturday Moderate
PM2.5
Saturday Good
OZONE

Snow Depth

Station Depth Elevation
No new snow has been reported.

Earthquake Activity

City Distance Mag. Time & Date
No recent earthquake activity has been reported nearby.
Minimum magnitude displayed is 2.5.

Coastal Water Temperatures

Place Temperature
Fairport, OH 75.0 °F
Cleveland, OH 73.0 °F

Nearby Weather Stations